Time;durP1;ratioP1;P1;durP2;ratioP2;P2;SDS_P1;SDS_P2;PMS_P1;PMS_P2;Temp;Humidity;BMP_temperature;BMP_pressure;BME280_temperature;BME280_humidity;BME280_pressure;Samples;Min_cycle;Max_cycle;Signal;HPM_P1;HPM_P2
2022/06/13 00:00:50;;;;;;;10.43;5.67;;;17.40;67.80;;;;;;6219609;23;20204;-91
2022/06/13 00:03:16;;;;;;;13.90;5.30;;;17.30;67.70;;;;;;6219838;23;20149;-91
2022/06/13 00:05:42;;;;;;;14.40;5.80;;;17.30;67.90;;;;;;6219823;23;20152;-91
2022/06/13 00:08:07;;;;;;;9.40;5.70;;;17.30;68.20;;;;;;6219833;23;20849;-91
2022/06/13 00:10:33;;;;;;;15.10;5.40;;;17.30;68.10;;;;;;6219931;23;20186;-91
2022/06/13 00:12:59;;;;;;;9.87;5.43;;;17.30;68.30;;;;;;6219831;23;20251;-92
2022/06/13 00:15:25;;;;;;;8.83;5.30;;;17.30;68.20;;;;;;6219881;23;20178;-92
2022/06/13 00:17:50;;;;;;;12.50;6.33;;;17.40;67.70;;;;;;6219945;23;20380;-92
2022/06/13 00:20:16;;;;;;;12.83;5.90;;;17.40;67.30;;;;;;6219907;23;20196;-93
2022/06/13 00:22:42;;;;;;;11.17;5.87;;;17.40;67.40;;;;;;6219548;23;20587;-90
2022/06/13 00:25:09;;;;;;;10.37;4.83;;;17.40;66.90;;;;;;6219379;23;20203;-91
2022/06/13 00:27:34;;;;;;;15.70;5.50;;;17.40;66.70;;;;;;6219172;23;20157;-90
2022/06/13 00:30:01;;;;;;;7.80;4.90;;;17.40;66.50;;;;;;6246739;22;20592;-91
2022/06/13 00:32:27;;;;;;;11.45;5.38;;;17.50;66.70;;;;;;6219646;23;20838;-91
2022/06/13 00:34:52;;;;;;;15.77;5.37;;;17.40;66.70;;;;;;6219445;23;20164;-91
2022/06/13 00:37:18;;;;;;;8.80;4.67;;;17.40;67.00;;;;;;6219581;23;20157;-90
2022/06/13 00:39:44;;;;;;;12.10;4.50;;;17.40;66.80;;;;;;6219669;23;20194;-90
2022/06/13 00:42:15;;;;;;;19.03;5.20;;;17.50;66.40;;;;;;6220396;23;20156;-90
2022/06/13 00:44:41;;;;;;;9.63;5.10;;;17.50;66.40;;;;;;6219898;23;20180;-90
2022/06/13 00:47:10;;;;;;;10.20;5.47;;;17.50;66.10;;;;;;6219799;23;20591;-90
2022/06/13 00:49:39;;;;;;;9.35;5.50;;;17.50;65.90;;;;;;6246297;22;20172;-90
2022/06/13 00:52:12;;;;;;;13.98;5.60;;;17.50;65.70;;;;;;6220177;23;20248;-91
2022/06/13 00:54:40;;;;;;;13.70;5.10;;;17.50;65.60;;;;;;6247844;23;20162;-92
2022/06/13 00:57:12;;;;;;;13.52;6.22;;;17.50;65.70;;;;;;6226798;23;20156;-93
2022/06/13 00:59:39;;;;;;;14.23;6.38;;;17.50;65.80;;;;;;6235430;22;20204;-90
2022/06/13 01:02:06;;;;;;;9.07;5.22;;;17.50;65.50;;;;;;6235903;23;20152;-91
2022/06/13 01:04:32;;;;;;;7.32;4.35;;;17.50;65.70;;;;;;6236059;23;20214;-92
2022/06/13 01:07:00;;;;;;;9.90;5.80;;;17.50;65.80;;;;;;6220417;23;20213;-91
2022/06/13 01:12:13;;;;;;;12.98;5.25;;;17.50;66.20;;;;;;6246412;23;20144;-91
2022/06/13 01:14:59;;;;;;;10.52;5.05;;;17.50;66.20;;;;;;6219558;23;20182;-91
2022/06/13 01:17:52;;;;;;;12.38;6.97;;;17.50;66.50;;;;;;6219606;23;20195;-91
2022/06/13 01:20:45;;;;;;;9.88;4.85;;;17.50;66.40;;;;;;6219323;23;20192;-91
2022/06/13 01:23:45;;;;;;;8.15;4.55;;;17.40;66.40;;;;;;6219149;23;20152;-91
2022/06/13 01:26:10;;;;;;;13.63;5.35;;;17.50;66.10;;;;;;6219267;23;20163;-91
2022/06/13 01:28:55;;;;;;;12.80;5.87;;;17.50;66.10;;;;;;6219502;23;20153;-90
2022/06/13 01:31:43;;;;;;;11.02;5.35;;;17.50;66.60;;;;;;6219424;23;20321;-91
2022/06/13 01:34:15;;;;;;;9.68;5.45;;;17.50;66.50;;;;;;6207524;23;20561;-91
2022/06/13 01:36:53;;;;;;;12.55;5.28;;;17.50;66.40;;;;;;6220633;23;20238;-90
2022/06/13 01:39:43;;;;;;;11.95;5.45;;;17.50;66.30;;;;;;6218971;22;20615;-91
2022/06/13 01:42:23;;;;;;;9.10;4.70;;;17.50;66.60;;;;;;6246946;23;20157;-91
2022/06/13 01:45:11;;;;;;;8.13;5.45;;;17.50;66.60;;;;;;6221289;23;20171;-91
2022/06/13 01:48:09;;;;;;;7.82;5.55;;;17.50;66.50;;;;;;6220631;23;20695;-90
2022/06/13 01:50:52;;;;;;;16.10;5.93;;;17.50;66.80;;;;;;6207741;23;20176;-91
2022/06/13 01:53:30;;;;;;;15.60;6.97;;;17.50;66.90;;;;;;6220988;23;20172;-90
2022/06/13 01:56:00;;;;;;;13.18;6.57;;;17.40;66.70;;;;;;6222513;23;20231;-90
2022/06/13 01:58:47;;;;;;;15.63;7.70;;;17.40;67.00;;;;;;6231762;23;20157;-89
2022/06/13 02:01:25;;;;;;;14.38;6.65;;;17.40;67.30;;;;;;6258304;22;20172;-89
2022/06/13 02:04:07;;;;;;;14.10;7.70;;;17.40;67.40;;;;;;6238940;23;20148;-91
2022/06/13 02:06:38;;;;;;;23.08;7.45;;;17.40;67.80;;;;;;6237321;23;20183;-90
2022/06/13 02:09:26;;;;;;;23.45;7.00;;;17.30;68.00;;;;;;6227192;23;20153;-89
2022/06/13 02:11:54;;;;;;;14.70;6.05;;;17.30;68.10;;;;;;6221360;23;20152;-91
2022/06/13 02:14:33;;;;;;;11.32;7.15;;;17.30;68.40;;;;;;6253128;23;20168;-91
2022/06/13 02:17:11;;;;;;;17.00;6.93;;;17.20;68.40;;;;;;6229874;23;20479;-91
2022/06/13 02:19:44;;;;;;;10.75;6.60;;;17.20;68.60;;;;;;6261089;22;20246;-91
2022/06/13 02:22:32;;;;;;;12.40;6.78;;;17.20;68.70;;;;;;6238285;23;20243;-91
2022/06/13 02:25:19;;;;;;;16.30;6.80;;;17.20;68.90;;;;;;6239611;23;20148;-93
2022/06/13 02:27:55;;;;;;;20.42;8.45;;;17.20;69.80;;;;;;6223037;23;20163;-92
2022/06/13 02:30:33;;;;;;;18.15;7.63;;;17.20;69.00;;;;;;6220045;23;20183;-92
2022/06/13 02:33:07;;;;;;;17.80;8.63;;;17.10;69.30;;;;;;6220088;23;20216;-92
2022/06/13 02:35:43;;;;;;;20.20;7.32;;;17.20;69.20;;;;;;6220622;23;20159;-92
2022/06/13 02:38:26;;;;;;;13.38;6.78;;;17.20;69.40;;;;;;6221278;23;20152;-92
2022/06/13 02:41:00;;;;;;;12.10;8.23;;;17.10;69.80;;;;;;6220985;23;20195;-92
2022/06/13 02:43:26;;;;;;;16.90;7.47;;;17.20;70.00;;;;;;6219356;23;20179;-92
2022/06/13 02:46:00;;;;;;;15.17;8.37;;;17.20;69.90;;;;;;6219378;23;20184;-93
2022/06/13 02:48:44;;;;;;;17.17;7.97;;;17.20;69.80;;;;;;6219597;23;20156;-92
2022/06/13 02:51:32;;;;;;;16.70;7.90;;;17.20;69.90;;;;;;6246895;22;20180;-93
2022/06/13 02:54:16;;;;;;;14.57;8.75;;;17.20;70.10;;;;;;6219925;23;20598;-92
2022/06/13 03:00:06;;;;;;;20.83;8.82;;;17.20;70.00;;;;;;6246269;22;20371;-91
2022/06/13 03:02:57;;;;;;;14.60;8.90;;;17.10;70.20;;;;;;6219897;23;20152;-91
2022/06/13 03:06:03;;;;;;;17.00;7.28;;;17.10;70.30;;;;;;6219804;23;20149;-91
2022/06/13 03:08:41;;;;;;;19.95;9.23;;;17.10;70.20;;;;;;6220073;23;20149;-90
2022/06/13 03:11:31;;;;;;;16.25;7.38;;;17.10;70.40;;;;;;6220293;23;20177;-92
2022/06/13 03:14:14;;;;;;;18.27;7.97;;;17.10;70.70;;;;;;6247438;23;20176;-92
2022/06/13 03:17:19;;;;;;;13.55;8.27;;;17.00;70.80;;;;;;6221776;23;20177;-92
2022/06/13 03:20:28;;;;;;;16.20;8.65;;;17.10;71.00;;;;;;6222299;23;20195;-91
2022/06/13 03:23:15;;;;;;;15.60;7.20;;;17.00;71.00;;;;;;6217024;23;20200;-91
2022/06/13 03:25:47;;;;;;;23.85;8.52;;;17.00;71.00;;;;;;6221756;23;20519;-90
2022/06/13 03:28:15;;;;;;;18.98;7.85;;;17.00;71.10;;;;;;6221306;23;20173;-90
2022/06/13 03:30:56;;;;;;;17.13;7.80;;;17.00;71.10;;;;;;6221055;23;20172;-91
2022/06/13 03:33:41;;;;;;;19.15;8.25;;;17.00;71.20;;;;;;6221036;23;20153;-91
2022/06/13 03:36:31;;;;;;;17.00;8.82;;;17.00;71.40;;;;;;6199037;23;20160;-91
2022/06/13 03:39:10;;;;;;;24.80;9.18;;;17.00;71.80;;;;;;6221189;23;20152;-92
2022/06/13 03:41:43;;;;;;;21.52;8.15;;;17.00;71.80;;;;;;6220484;23;20204;-91
2022/06/13 03:44:13;;;;;;;26.90;8.45;;;17.00;72.00;;;;;;6220827;23;20156;-92
2022/06/13 03:46:45;;;;;;;16.33;8.40;;;16.90;72.90;;;;;;6221084;23;20232;-92
2022/06/13 03:49:25;;;;;;;19.40;9.15;;;16.90;72.30;;;;;;6220854;23;20160;-92
2022/06/13 03:51:54;;;;;;;20.05;9.30;;;16.90;72.20;;;;;;6220841;23;20241;-91
2022/06/13 03:54:30;;;;;;;21.88;9.63;;;16.90;72.40;;;;;;6220835;23;20161;-91
2022/06/13 03:57:24;;;;;;;21.58;9.18;;;16.90;72.70;;;;;;6220998;23;20156;-92
2022/06/13 03:59:56;;;;;;;19.08;8.82;;;16.90;73.00;;;;;;6186085;23;20227;-92
2022/06/13 04:02:28;;;;;;;18.08;8.75;;;16.90;73.00;;;;;;6220576;23;20223;-92
2022/06/13 04:04:54;;;;;;;16.67;8.40;;;16.90;73.10;;;;;;6220367;23;20206;-92
2022/06/13 04:07:22;;;;;;;20.10;8.80;;;16.90;73.10;;;;;;6194969;23;20161;-91
2022/06/13 04:10:00;;;;;;;20.90;7.95;;;16.90;73.10;;;;;;6220286;23;20411;-91
2022/06/13 04:12:31;;;;;;;17.50;8.25;;;16.90;73.30;;;;;;6220322;23;20164;-92
2022/06/13 04:15:16;;;;;;;17.92;9.40;;;16.90;73.30;;;;;;6229581;23;20238;-90
2022/06/13 04:18:12;;;;;;;20.02;9.50;;;16.90;73.30;;;;;;6234146;23;20157;-90
2022/06/13 04:20:44;;;;;;;21.77;9.15;;;16.90;73.30;;;;;;6232479;23;20188;-91
2022/06/13 04:23:22;;;;;;;20.75;9.35;;;16.90;73.30;;;;;;6235282;23;20212;-90
2022/06/13 04:25:51;;;;;;;18.52;8.68;;;16.90;73.30;;;;;;6231874;23;20152;-91
2022/06/13 04:28:28;;;;;;;18.77;9.95;;;17.00;73.40;;;;;;6226186;23;20152;-91
2022/06/13 04:30:56;;;;;;;20.33;7.97;;;17.10;73.60;;;;;;6220688;23;20195;-91
2022/06/13 04:33:45;;;;;;;25.45;8.65;;;17.10;73.50;;;;;;6220762;23;20259;-92
2022/06/13 04:36:13;;;;;;;24.65;9.82;;;17.10;73.40;;;;;;6206414;23;20160;-92
2022/06/13 04:38:46;;;;;;;26.63;9.70;;;17.10;73.40;;;;;;6220815;23;20168;-91
2022/06/13 04:41:14;;;;;;;14.68;6.95;;;17.20;73.40;;;;;;6220359;23;20204;-91
2022/06/13 04:43:44;;;;;;;23.67;9.73;;;17.20;73.40;;;;;;6247457;23;20235;-91
2022/06/13 04:46:16;;;;;;;16.52;8.32;;;17.20;73.30;;;;;;6220416;23;20153;-91
2022/06/13 04:48:45;;;;;;;18.25;8.90;;;17.20;73.40;;;;;;6247686;23;20172;-91
2022/06/13 04:51:22;;;;;;;23.10;8.98;;;17.30;73.50;;;;;;6221289;23;20199;-91
2022/06/13 04:53:53;;;;;;;25.35;9.25;;;17.30;73.40;;;;;;6220606;23;20176;-91
2022/06/13 04:56:20;;;;;;;17.58;9.45;;;17.30;73.40;;;;;;6219765;23;20159;-90
2022/06/13 04:58:47;;;;;;;17.85;10.40;;;17.30;73.30;;;;;;6219172;23;20149;-89
2022/06/13 05:01:24;;;;;;;19.38;8.50;;;17.40;73.40;;;;;;6246772;22;20259;-90
2022/06/13 05:03:52;;;;;;;23.60;9.27;;;17.50;73.30;;;;;;6220514;23;20152;-90
2022/06/13 05:06:23;;;;;;;20.85;10.00;;;17.60;73.20;;;;;;6247419;23;20219;-90
2022/06/13 05:08:58;;;;;;;16.45;8.85;;;17.70;72.90;;;;;;6220408;23;20163;-90
2022/06/13 05:12:04;;;;;;;18.65;8.27;;;17.80;72.20;;;;;;6220701;23;20171;-90
2022/06/13 05:14:54;;;;;;;20.17;8.95;;;17.90;71.70;;;;;;6219695;23;20164;-90
2022/06/13 05:17:44;;;;;;;19.30;9.15;;;18.10;71.00;;;;;;6246147;23;20480;-90
2022/06/13 05:20:34;;;;;;;18.48;8.07;;;18.20;70.20;;;;;;6219359;23;20267;-90
2022/06/13 05:23:02;;;;;;;9.43;4.32;;;18.30;70.00;;;;;;6221183;23;20539;-90
2022/06/13 05:25:44;;;;;;;12.98;4.13;;;18.90;62.50;;;;;;6220196;23;20595;-90
2022/06/13 05:28:24;;;;;;;18.10;4.70;;;19.10;58.40;;;;;;6220002;23;20156;-90
2022/06/13 05:30:52;;;;;;;7.43;3.47;;;19.50;56.00;;;;;;6221027;23;20715;-91
2022/06/13 05:33:22;;;;;;;11.97;3.80;;;20.20;54.30;;;;;;6220518;23;20153;-90
2022/06/13 05:36:08;;;;;;;6.60;3.00;;;20.20;51.90;;;;;;6246663;23;20383;-90
2022/06/13 05:39:01;;;;;;;8.17;3.80;;;20.30;50.90;;;;;;6220240;23;20394;-89
2022/06/13 05:41:27;;;;;;;6.40;3.42;;;19.90;52.20;;;;;;6219248;23;20549;-90
2022/06/13 05:43:53;;;;;;;10.10;3.03;;;19.30;53.50;;;;;;6219540;23;20160;-90
2022/06/13 05:46:37;;;;;;;14.50;4.77;;;18.80;54.90;;;;;;6220381;23;20157;-89
2022/06/13 05:49:05;;;;;;;9.90;3.97;;;18.60;56.60;;;;;;6247818;23;20810;-90
2022/06/13 05:51:30;;;;;;;6.50;3.40;;;18.60;57.20;;;;;;6221476;23;20188;-90
2022/06/13 05:53:57;;;;;;;6.80;3.20;;;18.40;57.70;;;;;;6219289;23;20159;-91
2022/06/13 05:56:24;;;;;;;7.55;3.95;;;18.40;58.20;;;;;;6218782;23;20414;-91
2022/06/13 05:58:50;;;;;;;10.57;3.38;;;18.40;58.90;;;;;;6218817;23;20583;-91
2022/06/13 06:01:16;;;;;;;6.63;3.63;;;18.30;60.10;;;;;;6219224;23;20267;-90
2022/06/13 06:03:44;;;;;;;5.90;3.80;;;18.20;59.00;;;;;;6218901;23;20384;-91
2022/06/13 06:06:23;;;;;;;6.90;3.60;;;18.10;60.00;;;;;;6193768;23;20486;-90
2022/06/13 06:08:49;;;;;;;5.90;3.45;;;18.10;60.60;;;;;;6245358;23;20136;-91
2022/06/13 06:11:16;;;;;;;13.60;3.83;;;18.00;60.90;;;;;;6218262;23;20176;-91
2022/06/13 06:13:42;;;;;;;8.00;3.95;;;18.20;61.50;;;;;;6217908;23;20175;-91
2022/06/13 06:16:13;;;;;;;10.80;4.00;;;18.10;60.90;;;;;;6245330;23;20152;-90
2022/06/13 06:18:39;;;;;;;10.68;4.88;;;18.30;61.40;;;;;;6218821;23;20415;-90
2022/06/13 06:21:04;;;;;;;10.00;4.30;;;18.50;61.60;;;;;;6221096;23;20188;-90
2022/06/13 06:23:30;;;;;;;13.13;5.63;;;18.70;61.40;;;;;;6221037;23;20163;-90
2022/06/13 06:25:56;;;;;;;18.73;5.60;;;18.80;61.40;;;;;;6221199;23;20160;-90
2022/06/13 06:28:26;;;;;;;15.23;5.50;;;19.00;61.60;;;;;;6247739;23;20559;-90
2022/06/13 06:30:53;;;;;;;9.18;4.00;;;18.90;61.50;;;;;;6195694;23;20410;-90
2022/06/13 06:33:20;;;;;;;12.35;3.78;;;18.80;61.40;;;;;;6221305;23;20156;-89
2022/06/13 06:35:48;;;;;;;10.32;4.00;;;18.70;61.70;;;;;;6221176;23;20548;-90
2022/06/13 06:38:14;;;;;;;12.85;4.53;;;18.70;60.30;;;;;;6250430;23;20183;-89
2022/06/13 06:40:40;;;;;;;9.32;4.05;;;18.60;60.60;;;;;;6223578;23;20188;-90
2022/06/13 06:43:06;;;;;;;9.63;3.03;;;18.70;59.50;;;;;;6225575;23;20214;-90
2022/06/13 06:45:32;;;;;;;6.20;3.00;;;19.00;57.70;;;;;;6221787;23;20383;-90
2022/06/13 06:47:58;;;;;;;8.77;3.25;;;19.10;57.30;;;;;;6223586;23;20244;-90
2022/06/13 06:50:27;;;;;;;8.67;2.80;;;18.80;57.60;;;;;;6224518;23;20619;-90
2022/06/13 06:52:53;;;;;;;8.13;3.20;;;18.70;58.60;;;;;;6224023;23;20160;-91
2022/06/13 07:00:51;;;;;;;6.95;3.15;;;19.00;58.20;;;;;;6250512;22;20250;-90
2022/06/13 07:03:18;;;;;;;9.10;3.65;;;19.40;56.80;;;;;;6225382;23;20163;-90
2022/06/13 07:05:45;;;;;;;9.80;3.42;;;19.20;57.20;;;;;;6226723;23;20152;-89
2022/06/13 07:08:11;;;;;;;10.27;2.90;;;19.10;56.80;;;;;;6228230;23;20159;-90
2022/06/13 07:10:37;;;;;;;11.37;4.37;;;19.30;57.30;;;;;;6227841;23;20195;-90
2022/06/13 07:13:03;;;;;;;9.70;2.97;;;19.80;56.50;;;;;;6227364;23;20984;-90
2022/06/13 07:15:29;;;;;;;6.77;3.20;;;20.10;54.90;;;;;;6238508;23;20163;-90
2022/06/13 07:17:56;;;;;;;8.70;2.70;;;20.00;53.00;;;;;;6262764;23;20390;-90
2022/06/13 07:20:22;;;;;;;6.73;3.03;;;20.30;53.20;;;;;;6231402;23;20275;-89
2022/06/13 07:22:51;;;;;;;5.93;2.40;;;20.30;54.20;;;;;;6222540;23;20383;-90
2022/06/13 07:25:21;;;;;;;8.60;3.17;;;20.40;52.80;;;;;;6222925;23;20462;-90
2022/06/13 07:27:46;;;;;;;5.67;3.40;;;20.50;51.30;;;;;;6222653;23;20869;-89
2022/06/13 07:30:14;;;;;;;8.73;2.60;;;20.20;51.10;;;;;;6249367;22;20475;-90
2022/06/13 07:32:41;;;;;;;9.17;3.10;;;20.10;53.00;;;;;;6249092;23;20374;-90
2022/06/13 07:35:10;;;;;;;10.80;3.13;;;19.90;54.40;;;;;;6249619;23;20458;-91
2022/06/13 07:40:21;;;;;;;6.43;3.27;;;19.80;55.30;;;;;;6248395;22;20446;-90
2022/06/13 07:42:59;;;;;;;6.40;3.10;;;19.60;56.10;;;;;;6221404;23;20384;-90
2022/06/13 07:45:29;;;;;;;7.83;2.90;;;19.40;55.20;;;;;;6222092;23;20383;-90
2022/06/13 07:47:56;;;;;;;7.05;2.60;;;19.50;55.30;;;;;;6222003;23;20376;-90
2022/06/13 07:50:24;;;;;;;5.22;2.42;;;19.30;56.50;;;;;;6248454;22;20168;-90
2022/06/13 07:52:51;;;;;;;4.45;2.30;;;19.30;56.60;;;;;;6248961;23;20159;-90
2022/06/13 07:55:18;;;;;;;5.77;2.50;;;19.30;56.60;;;;;;6221366;23;20164;-90
2022/06/13 07:57:45;;;;;;;6.85;2.63;;;19.50;56.30;;;;;;6221261;23;20395;-90
2022/06/13 08:00:25;;;;;;;8.23;3.07;;;19.30;55.60;;;;;;6220994;23;20241;-90
2022/06/13 08:02:53;;;;;;;8.80;2.77;;;19.20;56.00;;;;;;6222244;23;20380;-90
2022/06/13 08:05:20;;;;;;;8.25;2.97;;;19.10;56.20;;;;;;6222307;23;20391;-90
2022/06/13 08:07:45;;;;;;;6.55;3.10;;;19.20;55.60;;;;;;6248800;23;20148;-90
2022/06/13 08:10:25;;;;;;;6.10;2.17;;;19.30;56.20;;;;;;6222075;23;20179;-91
2022/06/13 08:12:51;;;;;;;5.90;2.23;;;19.50;54.80;;;;;;6249281;23;20234;-91
2022/06/13 08:15:17;;;;;;;5.27;2.50;;;19.70;56.00;;;;;;6222380;23;20387;-91
2022/06/13 08:17:43;;;;;;;6.70;2.10;;;19.80;52.90;;;;;;6221485;23;20433;-89
2022/06/13 08:20:10;;;;;;;6.40;1.87;;;19.80;50.90;;;;;;6222788;23;20814;-89
2022/06/13 08:22:45;;;;;;;4.03;1.70;;;19.90;49.10;;;;;;6221656;23;20153;-89
2022/06/13 08:25:21;;;;;;;7.17;1.77;;;19.80;51.20;;;;;;6249305;23;20428;-89
2022/06/13 08:27:48;;;;;;;4.53;2.50;;;19.70;52.10;;;;;;6222339;23;20387;-89
2022/06/13 08:30:14;;;;;;;5.05;2.00;;;19.50;52.10;;;;;;6222717;23;20733;-89
2022/06/13 08:32:41;;;;;;;5.82;2.63;;;19.40;53.70;;;;;;6222610;23;20583;-90
2022/06/13 08:35:07;;;;;;;6.30;2.23;;;19.20;54.40;;;;;;6197424;23;20164;-88
2022/06/13 08:37:33;;;;;;;9.10;2.10;;;19.30;55.80;;;;;;6248638;23;20388;-89
2022/06/13 08:39:58;;;;;;;7.23;2.20;;;19.50;56.30;;;;;;6249090;22;20431;-89
2022/06/13 08:42:31;;;;;;;4.33;2.10;;;19.50;55.40;;;;;;6247687;23;20153;-89
2022/06/13 08:45:07;;;;;;;4.10;2.37;;;19.50;53.60;;;;;;6221542;23;20153;-89
2022/06/13 08:47:43;;;;;;;5.50;2.00;;;19.60;54.10;;;;;;6222323;23;20394;-89
2022/06/13 08:50:53;;;;;;;8.25;2.90;;;19.50;52.60;;;;;;6221110;23;20421;-89
2022/06/13 08:53:36;;;;;;;3.00;1.90;;;19.40;53.10;;;;;;6222244;23;20153;-89
2022/06/13 08:56:07;;;;;;;8.10;2.67;;;19.40;54.10;;;;;;6248933;23;20356;-88
2022/06/13 08:58:44;;;;;;;11.10;2.43;;;19.30;55.50;;;;;;6222579;23;20388;-89
2022/06/13 09:01:38;;;;;;;6.50;2.63;;;19.50;56.10;;;;;;6221186;23;20485;-88
2022/06/13 09:04:12;;;;;;;10.23;3.10;;;19.50;55.60;;;;;;6222042;23;20387;-88
2022/06/13 09:06:44;;;;;;;8.20;2.33;;;19.50;54.20;;;;;;6196449;23;20177;-89
2022/06/13 09:09:25;;;;;;;10.35;2.60;;;19.50;54.20;;;;;;6220495;23;20464;-89
2022/06/13 09:12:06;;;;;;;11.15;2.80;;;19.40;53.60;;;;;;6220292;23;20227;-89
2022/06/13 09:14:52;;;;;;;9.05;2.40;;;19.30;53.10;;;;;;6220606;23;20499;-89
2022/06/13 09:17:46;;;;;;;6.85;1.90;;;19.20;53.90;;;;;;6220831;23;20659;-89
2022/06/13 09:20:33;;;;;;;4.78;1.95;;;19.20;53.50;;;;;;6220087;23;20192;-89
2022/06/13 09:23:21;;;;;;;5.97;2.10;;;19.10;52.80;;;;;;6220841;23;20152;-90
2022/06/13 09:26:09;;;;;;;5.93;2.20;;;19.30;52.60;;;;;;6220806;23;20599;-90
2022/06/13 09:28:59;;;;;;;2.83;2.20;;;19.30;53.00;;;;;;6219778;23;20152;-90
2022/06/13 09:31:43;;;;;;;4.10;1.80;;;19.40;52.90;;;;;;6219439;23;20622;-91
2022/06/13 09:34:31;;;;;;;6.55;2.00;;;19.50;53.00;;;;;;6220822;23;20178;-90
2022/06/13 09:40:33;;;;;;;5.20;1.90;;;19.50;53.70;;;;;;6246827;22;20654;-91
2022/06/13 09:43:16;;;;;;;5.70;2.65;;;19.50;53.30;;;;;;6221046;23;20207;-90
2022/06/13 09:46:10;;;;;;;4.23;2.20;;;19.50;53.70;;;;;;6220888;23;20148;-90
2022/06/13 09:49:08;;;;;;;4.97;2.95;;;19.40;54.80;;;;;;6196093;23;20430;-90
2022/06/13 09:51:57;;;;;;;5.70;1.70;;;19.40;54.10;;;;;;6220909;23;20184;-89
2022/06/13 09:54:50;;;;;;;6.22;1.63;;;19.30;54.30;;;;;;6221263;23;20287;-90
2022/06/13 09:57:53;;;;;;;3.95;2.17;;;19.50;54.50;;;;;;6221792;23;20172;-89
2022/06/13 10:00:27;;;;;;;8.15;2.22;;;19.30;54.30;;;;;;6247679;22;20194;-90
2022/06/13 10:03:16;;;;;;;4.00;1.70;;;19.20;54.80;;;;;;6221319;23;20218;-90
2022/06/13 10:05:55;;;;;;;4.43;1.63;;;19.20;53.80;;;;;;6221285;23;20235;-89
2022/06/13 10:08:23;;;;;;;3.30;1.60;;;19.50;52.80;;;;;;6220633;23;20153;-89
2022/06/13 10:10:54;;;;;;;3.70;2.00;;;19.60;53.50;;;;;;6220681;23;20192;-89
2022/06/13 10:13:49;;;;;;;6.88;2.10;;;19.60;52.80;;;;;;6220389;23;20510;-89
2022/06/13 10:16:45;;;;;;;6.25;1.90;;;19.40;52.60;;;;;;6182762;23;20163;-89
2022/06/13 10:19:29;;;;;;;4.68;1.83;;;19.30;53.00;;;;;;6230922;22;20140;-91
2022/06/13 10:22:12;;;;;;;9.47;1.80;;;19.30;53.70;;;;;;6245865;23;20171;-90
2022/06/13 10:25:00;;;;;;;10.57;3.45;;;19.30;55.00;;;;;;6231717;23;20719;-90
2022/06/13 10:27:54;;;;;;;4.67;2.00;;;19.30;53.90;;;;;;6224168;23;20180;-90
2022/06/13 10:30:32;;;;;;;4.90;2.10;;;19.30;53.50;;;;;;6237604;22;20399;-90
2022/06/13 10:33:23;;;;;;;4.03;2.17;;;19.50;53.20;;;;;;6251253;23;20157;-90
2022/06/13 10:36:00;;;;;;;2.80;2.00;;;19.50;52.40;;;;;;6223834;23;20525;-90
2022/06/13 10:38:52;;;;;;;11.93;2.90;;;19.50;53.30;;;;;;6223521;23;20412;-89
2022/06/13 10:41:18;;;;;;;3.75;1.73;;;19.70;55.00;;;;;;6221721;23;20438;-90
2022/06/13 10:43:44;;;;;;;3.83;1.63;;;19.70;54.50;;;;;;6224204;23;20156;-90
2022/06/13 10:46:14;;;;;;;3.83;2.00;;;19.80;52.70;;;;;;6228231;23;20389;-90
2022/06/13 10:49:10;;;;;;;8.10;2.20;;;19.90;52.30;;;;;;6231265;23;20153;-89
2022/06/13 10:51:40;;;;;;;5.20;1.57;;;20.00;53.00;;;;;;6227074;23;20403;-89
2022/06/13 10:54:09;;;;;;;3.70;1.33;;;19.90;50.90;;;;;;6224099;23;20379;-90
2022/06/13 10:56:56;;;;;;;5.57;1.70;;;20.20;48.60;;;;;;6222249;23;20387;-90
2022/06/13 10:59:34;;;;;;;5.13;1.73;;;20.30;51.00;;;;;;6222472;22;20418;-91
2022/06/13 11:02:19;;;;;;;2.90;1.70;;;20.40;49.40;;;;;;6223909;23;20388;-90
2022/06/13 11:04:44;;;;;;;8.40;2.03;;;20.40;49.40;;;;;;6222036;23;20379;-90
2022/06/13 11:07:19;;;;;;;3.53;1.80;;;20.30;49.80;;;;;;6222369;23;20433;-89
2022/06/13 11:09:57;;;;;;;5.13;1.80;;;20.30;49.60;;;;;;6221847;23;20172;-89
2022/06/13 11:12:27;;;;;;;3.53;1.80;;;19.90;51.00;;;;;;6222635;23;20493;-89
2022/06/13 11:23:51;;;;;;;3.33;2.03;;;19.50;52.70;;;;;;6268679;22;20198;-90
2022/06/13 11:29:05;;;;;;;3.38;1.73;;;19.60;53.10;;;;;;6249923;23;20525;-91
2022/06/13 11:31:31;;;;;;;9.70;2.33;;;19.70;54.40;;;;;;6222846;23;20662;-90
2022/06/13 11:33:58;;;;;;;2.95;1.55;;;19.80;53.30;;;;;;6222187;23;20156;-90
2022/06/13 11:36:28;;;;;;;2.13;1.48;;;19.60;51.30;;;;;;6222925;23;20211;-91
2022/06/13 11:39:00;;;;;;;5.57;2.03;;;19.60;52.00;;;;;;6221169;23;20160;-90
2022/06/13 11:41:36;;;;;;;2.07;1.43;;;19.60;50.70;;;;;;6221919;23;20222;-90
2022/06/13 11:44:15;;;;;;;3.83;2.03;;;19.40;51.30;;;;;;6250355;23;20352;-90
2022/06/13 11:46:53;;;;;;;2.78;1.83;;;19.40;50.40;;;;;;6225206;23;20387;-91
2022/06/13 11:49:32;;;;;;;3.20;1.40;;;19.10;50.10;;;;;;6221080;23;20156;-91
2022/06/13 11:52:09;;;;;;;5.88;2.25;;;19.10;50.80;;;;;;6221962;23;20235;-90
2022/06/13 11:54:34;;;;;;;5.05;1.92;;;19.40;50.60;;;;;;6248927;23;20599;-90
2022/06/13 11:57:15;;;;;;;4.20;1.53;;;19.40;49.50;;;;;;6221957;23;20160;-90
2022/06/13 12:00:06;;;;;;;4.53;1.85;;;19.40;50.30;;;;;;6221927;22;20274;-91
2022/06/13 12:02:39;;;;;;;3.90;1.80;;;19.40;49.70;;;;;;6222162;23;20160;-91
2022/06/13 12:05:21;;;;;;;5.03;2.05;;;19.30;49.40;;;;;;6222269;23;20152;-90
2022/06/13 12:08:16;;;;;;;5.90;2.00;;;19.30;51.20;;;;;;6251454;23;20137;-90
2022/06/13 12:11:22;;;;;;;1.90;1.40;;;19.30;50.40;;;;;;6222616;23;20176;-90
2022/06/13 12:13:50;;;;;;;2.70;1.90;;;19.40;50.40;;;;;;6211507;23;20523;-90
2022/06/13 12:16:33;;;;;;;4.38;1.50;;;19.40;49.00;;;;;;6221688;23;20205;-89
2022/06/13 12:19:21;;;;;;;6.35;2.40;;;19.30;48.70;;;;;;6221155;23;20167;-91
2022/06/13 12:21:57;;;;;;;3.92;1.58;;;19.50;48.00;;;;;;6221925;23;20163;-91
2022/06/13 12:24:31;;;;;;;2.05;1.42;;;19.40;48.00;;;;;;6221402;23;20163;-89
2022/06/13 12:27:21;;;;;;;4.40;1.60;;;19.20;49.70;;;;;;6221183;23;20149;-91
2022/06/13 12:30:31;;;;;;;5.23;2.07;;;19.20;48.10;;;;;;6221072;23;20180;-90
2022/06/13 12:33:25;;;;;;;6.43;1.77;;;19.30;49.60;;;;;;6221114;23;20379;-90
2022/06/13 12:36:36;;;;;;;2.42;1.48;;;19.40;49.00;;;;;;6221487;23;20499;-90
2022/06/13 12:39:46;;;;;;;10.55;1.65;;;19.40;47.50;;;;;;6221047;23;20157;-90
2022/06/13 12:42:39;;;;;;;9.07;1.77;;;19.60;47.30;;;;;;6221016;23;20153;-90
2022/06/13 12:45:17;;;;;;;3.85;1.48;;;19.40;48.20;;;;;;6219499;23;20167;-90
2022/06/13 12:47:53;;;;;;;2.85;1.30;;;19.60;47.60;;;;;;6220807;23;20168;-89
2022/06/13 12:50:25;;;;;;;10.13;2.22;;;19.50;48.00;;;;;;6219160;23;20248;-90
2022/06/13 12:52:58;;;;;;;6.30;1.95;;;19.40;48.20;;;;;;6219113;23;20176;-90
2022/06/13 12:55:47;;;;;;;7.55;2.28;;;19.50;49.40;;;;;;6219875;23;20181;-89
2022/06/13 12:58:27;;;;;;;7.07;1.70;;;19.50;48.10;;;;;;6223179;23;20172;-89
2022/06/13 13:01:21;;;;;;;3.72;1.90;;;19.40;48.30;;;;;;6224084;23;20252;-90
2022/06/13 13:04:05;;;;;;;5.03;1.92;;;19.50;49.50;;;;;;6221838;23;20308;-91
2022/06/13 13:06:39;;;;;;;7.13;1.80;;;19.40;47.90;;;;;;6225152;23;20153;-90
2022/06/13 13:09:27;;;;;;;9.68;2.63;;;19.40;48.70;;;;;;6225122;23;20241;-90
2022/06/13 13:12:35;;;;;;;7.70;2.00;;;19.40;48.30;;;;;;6224799;23;20571;-90
2022/06/13 13:15:14;;;;;;;7.40;1.92;;;19.30;49.30;;;;;;6198731;23;20171;-90
2022/06/13 13:17:43;;;;;;;7.40;2.05;;;19.40;48.10;;;;;;6223448;23;20148;-90
2022/06/13 13:20:12;;;;;;;9.23;2.10;;;19.50;49.80;;;;;;6223595;23;20218;-90
2022/06/13 13:22:52;;;;;;;5.88;1.80;;;19.50;47.90;;;;;;6224024;23;20663;-90
2022/06/13 13:25:24;;;;;;;7.57;2.10;;;19.30;47.90;;;;;;6223280;23;20185;-89
2022/06/13 13:28:05;;;;;;;4.25;2.10;;;19.40;46.90;;;;;;6223133;23;20327;-89
2022/06/13 13:30:44;;;;;;;8.73;2.38;;;19.20;47.50;;;;;;6224130;23;20176;-89
2022/06/13 13:33:40;;;;;;;7.47;2.22;;;19.20;48.20;;;;;;6251582;23;20145;-89
2022/06/13 13:36:12;;;;;;;8.20;2.22;;;19.30;49.10;;;;;;6224240;23;20623;-91
2022/06/13 13:38:43;;;;;;;5.22;1.73;;;19.40;49.10;;;;;;6232929;23;20160;-91
2022/06/13 13:41:21;;;;;;;11.35;2.47;;;19.50;46.10;;;;;;6242457;23;20185;-91
2022/06/13 13:43:54;;;;;;;8.55;2.60;;;19.50;46.40;;;;;;6234525;23;20242;-90
2022/06/13 13:46:29;;;;;;;9.35;2.70;;;19.20;47.50;;;;;;6201475;23;20156;-90
2022/06/13 13:49:04;;;;;;;4.40;1.88;;;19.20;46.70;;;;;;6225358;23;20158;-90
2022/06/13 13:51:44;;;;;;;5.80;2.10;;;19.00;46.70;;;;;;6201173;23;20182;-90
2022/06/13 13:54:10;;;;;;;3.83;1.55;;;19.00;48.00;;;;;;6224333;23;20531;-89
2022/06/13 13:56:47;;;;;;;10.33;2.10;;;19.10;47.90;;;;;;6224481;23;20163;-89
2022/06/13 13:59:17;;;;;;;4.40;1.92;;;18.90;47.60;;;;;;6224899;23;20212;-90